This is the latest recevied weather packets stored in our database for station/object CA3SQH-10. If no packets are shown the sender has not sent any weather packets the latest 10 day(s).
| Time | Temp. | Humidity | Pressure | Rain* | Wind** | Luminosity | Snow |
|---|---|---|---|---|---|---|---|
| 1777841299 | 22.78° C | 36% | 938.9 hPa | - | - | - | - |
| 1777840399 | 23.33° C | 36% | 938.8 hPa | - | - | - | - |
| 1777839498 | 23.33° C | 38% | 938.9 hPa | - | - | - | - |
| 1777838598 | 23.89° C | 39% | 938.7 hPa | - | - | - | - |
| 1777837698 | 23.89° C | 38% | 938.7 hPa | - | - | - | - |
| 1777836798 | 23.89° C | 39% | 938.7 hPa | - | - | - | - |
| 1777835898 | 25° C | 37% | 938.7 hPa | - | - | - | - |
| 1777834997 | 24.44° C | 38% | 938.7 hPa | - | - | - | - |
| 1777834097 | 25° C | 36% | 938.7 hPa | - | - | - | - |
| 1777833197 | 25° C | 36% | 938.7 hPa | - | - | - | - |
| 1777832297 | 24.44° C | 36% | 938.7 hPa | - | - | - | - |
| 1777831396 | 25° C | 34% | 938.6 hPa | - | - | - | - |
| 1777830496 | 25° C | 35% | 938.6 hPa | - | - | - | - |
| 1777829596 | 25° C | 36% | 938.7 hPa | - | - | - | - |
| 1777828696 | 24.44° C | 35% | 939 hPa | - | - | - | - |
| 1777827796 | 24.44° C | 36% | 939.2 hPa | - | - | - | - |
| 1777826895 | 23.33° C | 36% | 939.4 hPa | - | - | - | - |
| 1777825995 | 23.33° C | 36% | 939.4 hPa | - | - | - | - |
| 1777825095 | 22.78° C | 37% | 939.6 hPa | - | - | - | - |
| 1777824839 | 22.78° C | 37% | 939.6 hPa | - | - | - | - |
| 1777823939 | 22.78° C | 36% | 939.6 hPa | - | - | - | - |
| 1777823039 | 21.67° C | 39% | 939.7 hPa | - | - | - | - |
| 1777822138 | 21.67° C | 42% | 939.6 hPa | - | - | - | - |
| 1777821238 | 21.11° C | 46% | 939.8 hPa | - | - | - | - |
| 1777820338 | 20.56° C | 42% | 939.9 hPa | - | - | - | - |
* Rain since midnight (hover to see other rain measurements)
** Current wind speed in m/s (hover to see current wind gust speed)